Time;durP1;ratioP1;P1;durP2;ratioP2;P2;SDS_P1;SDS_P2;PMS_P1;PMS_P2;Temp;Humidity;BMP_temperature;BMP_pressure;BME280_temperature;BME280_humidity;BME280_pressure;Samples;Min_cycle;Max_cycle;Signal;HPM_P1;HPM_P2
2023/10/29 00:02:08;;;;;;;10.57;8.23;;;;;;;12.03;74.45;97521.66;10281846;28;19920;-53
2023/10/29 00:07:07;;;;;;;11.60;8.70;;;;;;;12.09;73.82;97526.81;10313780;28;20438;-53
2023/10/29 00:12:06;;;;;;;19.38;11.40;;;;;;;12.11;74.75;97530.25;10282267;28;20041;-53
2023/10/29 00:17:05;;;;;;;;;;;;;;;12.09;74.70;97535.44;10284027;28;20125;-54
2023/10/29 00:22:04;;;;;;;12.40;9.25;;;;;;;12.08;74.92;97525.91;10284436;28;19972;-53
2023/10/29 00:27:03;;;;;;;11.82;8.85;;;;;;;11.95;74.78;97515.69;10289870;28;20099;-54
2023/10/29 00:32:02;;;;;;;11.60;8.40;;;;;;;11.97;74.62;97516.50;10289480;28;20065;-55
2023/10/29 00:37:02;;;;;;;11.98;9.55;;;;;;;12.00;74.35;97529.50;10289712;28;20125;-54
2023/10/29 00:42:02;;;;;;;12.55;9.52;;;;;;;11.91;74.80;97534.78;10290186;28;20081;-55
2023/10/29 00:47:01;;;;;;;;;;;;;;;11.85;75.73;97536.56;10289945;28;20069;-54
2023/10/29 00:52:00;;;;;;;10.18;8.50;;;;;;;11.82;75.54;97541.78;10287356;28;19913;-55
2023/10/29 00:56:59;;;;;;;12.30;8.63;;;;;;;11.80;76.24;97548.72;10289554;28;20069;-54
2023/10/29 01:01:58;;;;;;;11.75;9.07;;;;;;;11.69;76.52;97548.00;10287988;28;20117;-51
2023/10/29 01:06:57;;;;;;;14.48;8.45;;;;;;;11.60;77.14;97546.31;10288515;28;20100;-53
2023/10/29 01:11:56;;;;;;;;;;;;;;;11.58;76.13;97539.41;10288055;28;20483;-53
2023/10/29 01:16:55;;;;;;;10.73;9.60;;;;;;;11.59;75.98;97543.72;10288075;28;20374;-53
2023/10/29 01:21:54;;;;;;;13.30;9.13;;;;;;;11.48;76.68;97540.34;10287871;28;20490;-53
2023/10/29 01:26:53;;;;;;;12.13;8.98;;;;;;;11.48;77.04;97545.53;10287391;28;20127;-53
2023/10/29 01:31:52;;;;;;;17.13;9.82;;;;;;;11.38;77.37;97537.81;10287076;28;20092;-54
2023/10/29 01:36:51;;;;;;;12.48;9.52;;;;;;;11.31;77.53;97525.75;10286256;28;20124;-54
2023/10/29 01:41:55;;;;;;;19.77;9.88;;;;;;;11.35;77.11;97553.44;10287176;28;20068;-51
2023/10/29 01:46:54;;;;;;;13.43;9.93;;;;;;;11.30;76.72;97560.41;10287314;28;20518;-53
2023/10/29 01:51:53;;;;;;;12.88;9.35;;;;;;;11.25;76.76;97557.00;10286594;28;20614;-53
2023/10/29 01:56:52;;;;;;;10.48;8.88;;;;;;;11.22;77.29;97565.66;10285653;28;20065;-54
2023/10/29 02:01:51;;;;;;;11.82;8.38;;;;;;;11.18;77.18;97568.28;10287240;28;20128;-54
2023/10/29 02:06:50;;;;;;;12.27;8.45;;;;;;;11.07;77.37;97565.75;10285739;28;20084;-53
2023/10/29 02:11:49;;;;;;;11.10;8.55;;;;;;;11.11;77.64;97566.59;10285110;28;20133;-52
2023/10/29 02:16:49;;;;;;;12.23;8.88;;;;;;;10.99;78.17;97572.75;10285115;28;20145;-53
2023/10/29 02:21:48;;;;;;;10.77;9.18;;;;;;;10.94;79.01;97583.16;10316249;28;20077;-52
2023/10/29 02:26:47;;;;;;;12.88;9.50;;;;;;;10.88;78.75;97583.16;10284741;28;20442;-52
2023/10/29 02:31:46;;;;;;;13.00;9.52;;;;;;;10.91;78.42;97582.28;10285597;28;20070;-53
2023/10/29 02:36:45;;;;;;;11.40;9.40;;;;;;;10.85;79.26;97588.34;10284140;28;20483;-52
2023/10/29 02:41:44;;;;;;;12.82;9.27;;;;;;;10.79;79.63;97584.03;10284863;28;20034;-53
2023/10/29 02:46:43;;;;;;;11.73;8.93;;;;;;;10.76;79.46;97584.06;10283793;28;20046;-53
2023/10/29 02:51:42;;;;;;;19.35;9.00;;;;;;;10.77;79.05;97587.50;10284008;28;20129;-53
2023/10/29 02:56:40;;;;;;;10.38;8.18;;;;;;;10.65;79.88;97596.22;10283433;28;20117;-53
2023/10/29 03:01:39;;;;;;;9.25;7.97;;;;;;;10.65;79.11;97603.13;10284200;28;20049;-53
2023/10/29 03:06:41;;;;;;;11.43;8.57;;;;;;;10.64;79.05;97611.81;10283349;28;20077;-53
2023/10/29 03:11:40;;;;;;;8.55;7.57;;;;;;;10.58;78.28;97610.94;10284022;28;20073;-53
2023/10/29 03:16:39;;;;;;;14.48;9.27;;;;;;;10.46;78.17;97610.97;10283995;28;20100;-55
2023/10/29 03:21:38;;;;;;;10.30;8.68;;;;;;;10.10;80.80;97622.31;10283546;28;20048;-53
2023/10/29 03:26:37;;;;;;;13.13;9.52;;;;;;;9.93;81.78;97617.13;10283227;28;20026;-54
2023/10/29 03:31:37;;;;;;;14.98;8.93;;;;;;;9.97;81.21;97616.25;10283683;28;20036;-52
2023/10/29 03:36:36;;;;;;;13.65;9.45;;;;;;;9.98;80.81;97625.78;10283514;28;20136;-54
2023/10/29 03:41:35;;;;;;;11.00;8.98;;;;;;;9.97;81.27;97630.06;10283170;28;20527;-54
2023/10/29 03:46:34;;;;;;;12.65;9.25;;;;;;;9.94;81.43;97637.00;10283359;28;20502;-53
2023/10/29 03:51:32;;;;;;;12.48;8.90;;;;;;;9.90;81.11;97643.91;10282924;28;20435;-54
2023/10/29 03:56:31;;;;;;;12.07;9.25;;;;;;;9.82;81.15;97647.38;10284345;28;20046;-52
2023/10/29 04:01:30;;;;;;;11.65;8.90;;;;;;;9.81;81.57;97645.63;10291095;28;20507;-54
2023/10/29 04:06:31;;;;;;;11.23;9.68;;;;;;;9.81;81.14;97656.00;10290672;28;20073;-53
2023/10/29 04:11:30;;;;;;;10.50;8.40;;;;;;;9.81;81.64;97659.44;10290263;28;20070;-54
2023/10/29 04:16:29;;;;;;;14.23;9.57;;;;;;;9.81;82.15;97661.19;10290350;28;20018;-53
2023/10/29 04:21:28;;;;;;;12.27;9.35;;;;;;;9.73;82.30;97664.63;10290198;28;20073;-54
2023/10/29 04:26:27;;;;;;;13.73;9.55;;;;;;;9.67;82.30;97664.63;10289819;28;20026;-54
2023/10/29 04:31:26;;;;;;;;;;;;;;;9.65;82.62;97671.56;10291346;28;20072;-54
2023/10/29 04:36:25;;;;;;;17.88;10.85;;;;;;;9.02;82.50;97569.53;10290301;28;19926;-52
2023/10/29 04:41:24;;;;;;;17.42;12.90;;;;;;;9.62;81.98;97676.72;10289796;28;20073;-54
2023/10/29 04:46:23;;;;;;;20.60;10.93;;;;;;;9.57;82.19;97683.63;10289765;28;20030;-52
2023/10/29 04:51:23;;;;;;;15.95;10.77;;;;;;;9.55;81.78;97675.81;10290015;28;20133;-54
2023/10/29 04:56:21;;;;;;;;;;;;;;;9.55;81.50;97674.97;10288758;28;20557;-54
2023/10/29 05:01:20;;;;;;;16.60;10.25;;;;;;;9.54;81.54;97675.84;10289724;28;20584;-54
2023/10/29 05:06:21;;;;;;;15.07;10.18;;;;;;;9.53;81.38;97687.06;10288187;28;20116;-54
2023/10/29 05:11:20;;;;;;;15.63;10.38;;;;;;;9.49;81.53;97669.81;10286902;28;20475;-54
2023/10/29 05:16:20;;;;;;;15.75;9.20;;;;;;;9.61;81.14;97685.34;10287951;28;20506;-54
2023/10/29 05:21:20;;;;;;;13.45;9.00;;;;;;;9.59;80.99;97707.81;10288165;28;20076;-54
2023/10/29 05:26:19;;;;;;;14.23;8.68;;;;;;;9.66;81.23;97709.53;10287956;28;20065;-53
2023/10/29 05:31:18;;;;;;;12.95;8.95;;;;;;;9.69;80.93;97717.31;10287363;28;20127;-53
2023/10/29 05:36:17;;;;;;;12.52;7.63;;;;;;;9.87;80.74;97718.22;10318765;28;20045;-53
2023/10/29 05:41:17;;;;;;;15.68;8.85;;;;;;;9.94;80.94;97719.94;10287049;28;20094;-53
2023/10/29 05:46:16;;;;;;;16.23;10.13;;;;;;;10.08;80.98;97744.16;10287402;28;20544;-54
2023/10/29 05:51:18;;;;;;;15.45;9.13;;;;;;;10.04;80.82;97750.19;10288128;28;20741;-52
2023/10/29 05:56:18;;;;;;;12.85;9.45;;;;;;;10.01;79.85;97757.13;10286709;28;20124;-54
2023/10/29 06:01:17;;;;;;;;;;;;;;;9.99;79.36;97768.34;10286345;28;20543;-53
2023/10/29 06:06:15;;;;;;;17.50;10.02;;;;;;;10.04;79.55;97772.66;10286870;28;19918;-54
2023/10/29 06:11:14;;;;;;;11.77;8.80;;;;;;;10.13;79.21;97764.91;10285678;28;20037;-53
2023/10/29 06:16:14;;;;;;;12.70;9.43;;;;;;;10.31;79.27;97775.28;10285270;28;20143;-53
2023/10/29 06:21:12;;;;;;;16.65;9.32;;;;;;;10.65;78.36;97777.00;10285148;28;20084;-54
2023/10/29 06:26:11;;;;;;;12.98;10.00;;;;;;;10.81;79.10;97784.75;10285965;28;20040;-54
2023/10/29 06:31:10;;;;;;;12.23;8.95;;;;;;;11.02;78.56;97783.88;10284733;28;20029;-54
2023/10/29 06:36:09;;;;;;;15.23;8.60;;;;;;;11.24;78.82;97786.41;10286367;28;20475;-54
2023/10/29 06:41:08;;;;;;;12.38;8.02;;;;;;;11.46;79.03;97772.50;10283771;28;20121;-54
2023/10/29 06:46:07;;;;;;;13.10;9.65;;;;;;;11.65;80.12;97775.88;10315272;28;20030;-54
2023/10/29 06:51:06;;;;;;;19.48;12.38;;;;;;;11.39;79.31;97720.56;10282078;28;20026;-53
2023/10/29 06:56:06;;;;;;;15.07;10.25;;;;;;;11.55;81.02;97800.19;10283580;28;20033;-54
2023/10/29 07:01:06;;;;;;;13.23;9.52;;;;;;;11.84;80.45;97807.84;10283593;28;20084;-54
2023/10/29 07:06:05;;;;;;;10.98;7.63;;;;;;;11.98;80.56;97805.16;10275577;28;20077;-54
2023/10/29 07:11:04;;;;;;;10.75;8.20;;;;;;;12.01;79.98;97766.13;10283769;28;20132;-54
2023/10/29 07:16:04;;;;;;;12.85;8.38;;;;;;;12.54;79.17;97816.09;10283225;28;20112;-54
2023/10/29 07:21:04;;;;;;;11.57;7.85;;;;;;;12.65;78.63;97818.59;10283466;28;20508;-54
2023/10/29 07:26:03;;;;;;;13.93;7.38;;;;;;;12.95;77.67;97827.88;10284214;28;20076;-54
2023/10/29 07:31:02;;;;;;;10.05;7.63;;;;;;;13.19;77.50;97825.91;10283019;28;20397;-54
2023/10/29 07:36:02;;;;;;;12.02;6.97;;;;;;;13.47;76.66;97813.44;10283334;28;20125;-54
2023/10/29 07:41:02;;;;;;;8.68;6.70;;;;;;;13.75;75.68;97816.63;10282814;28;20061;-54
2023/10/29 07:46:05;;;;;;;10.10;6.72;;;;;;;13.91;73.17;97822.50;10283564;28;20121;-55
2023/10/29 07:51:04;;;;;;;10.20;5.95;;;;;;;14.19;72.48;97817.75;10281861;28;20077;-53
2023/10/29 07:56:07;;;;;;;8.77;6.32;;;;;;;14.37;70.69;97822.69;10283121;28;20078;-53
2023/10/29 08:01:13;;;;;;;10.00;6.38;;;;;;;14.58;70.02;97826.72;10283089;28;20129;-52
2023/10/29 08:06:13;;;;;;;9.27;6.55;;;;;;;14.74;68.93;97806.50;10281982;28;21543;-53
2023/10/29 08:11:21;;;;;;;9.52;6.07;;;;;;;15.22;68.48;97831.78;10282820;28;20133;-53
2023/10/29 08:16:20;;;;;;;8.35;5.82;;;;;;;15.44;66.02;97814.78;10282504;28;20153;-51
2023/10/29 08:21:19;;;;;;;;;;;;;;;15.82;65.69;97833.25;10283372;28;20046;-54
2023/10/29 08:26:18;;;;;;;8.10;5.70;;;;;;;16.09;63.17;97839.66;10283318;28;20477;-53
2023/10/29 08:31:17;;;;;;;;;;;;;;;16.27;62.86;97831.38;10281991;28;20120;-52
2023/10/29 08:36:16;;;;;;;10.43;6.32;;;;;;;16.27;60.88;97789.50;10282836;28;19917;-54
2023/10/29 08:41:16;;;;;;;8.20;5.20;;;;;;;16.58;58.96;97812.34;10282417;28;20073;-54
2023/10/29 08:46:15;;;;;;;7.15;5.50;;;;;;;16.98;57.59;97826.25;10286950;28;20125;-54
2023/10/29 08:51:15;;;;;;;;;;;;;;;17.29;57.13;97815.84;10287893;28;20125;-54
2023/10/29 08:56:15;;;;;;;;;;;;;;;17.47;55.15;97817.06;10290448;28;20029;-53
2023/10/29 09:01:15;;;;;;;7.78;5.55;;;;;;;17.60;54.45;97815.84;10288802;28;19949;-54
2023/10/29 09:06:14;;;;;;;7.72;5.32;;;;;;;17.89;53.01;97811.53;10289645;28;20808;-54
2023/10/29 09:11:17;;;;;;;8.65;5.50;;;;;;;18.23;52.59;97816.63;10288201;28;20140;-55
2023/10/29 09:16:15;;;;;;;8.85;5.63;;;;;;;18.53;51.33;97811.34;10284381;28;20570;-54
2023/10/29 09:21:14;;;;;;;7.80;5.50;;;;;;;18.82;49.78;97808.63;10287761;28;20494;-54
2023/10/29 09:26:13;;;;;;;8.10;5.50;;;;;;;19.08;48.66;97800.78;10288040;28;20455;-54
2023/10/29 09:31:17;;;;;;;7.30;6.05;;;;;;;19.23;48.20;97795.00;10286557;28;20124;-54
2023/10/29 09:36:18;;;;;;;10.82;6.85;;;;;;;19.50;46.57;97792.28;10286790;28;20077;-54
2023/10/29 09:41:20;;;;;;;7.72;5.93;;;;;;;19.72;46.06;97782.72;10287087;28;20077;-54
2023/10/29 09:46:21;;;;;;;11.63;7.35;;;;;;;19.91;46.10;97774.97;10286920;28;20073;-54
2023/10/29 09:51:21;;;;;;;13.23;8.10;;;;;;;20.14;44.33;97768.81;10285782;28;20138;-54
2023/10/29 09:56:20;;;;;;;12.82;8.43;;;;;;;19.24;43.21;97552.03;10286843;28;20146;-54
2023/10/29 10:01:20;;;;;;;10.80;6.28;;;;;;;20.64;41.99;97750.13;10285681;28;20034;-54
2023/10/29 10:06:20;;;;;;;11.65;7.05;;;;;;;20.80;41.32;97754.75;10286152;28;20125;-54
2023/10/29 10:11:24;;;;;;;7.95;7.13;;;;;;;20.77;40.67;97753.06;10286017;28;20116;-55
2023/10/29 10:16:23;;;;;;;8.57;6.40;;;;;;;21.05;40.27;97755.38;10285644;28;20130;-54
2023/10/29 10:21:39;;;;;;;8.32;6.60;;;;;;;21.12;39.68;97740.16;10285438;28;20126;-54
2023/10/29 10:26:39;;;;;;;9.68;6.75;;;;;;;21.33;39.77;97741.03;10285542;28;20057;-54
2023/10/29 10:31:38;;;;;;;11.65;6.07;;;;;;;21.41;38.86;97738.91;10285088;28;20080;-54
2023/10/29 10:36:37;;;;;;;8.43;5.95;;;;;;;21.66;38.88;97743.06;10283354;28;20076;-55
2023/10/29 10:41:41;;;;;;;9.35;6.25;;;;;;;21.84;38.69;97742.22;10284717;28;20064;-55
2023/10/29 10:46:43;;;;;;;7.65;5.80;;;;;;;21.89;37.91;97734.91;10285442;28;20471;-54
2023/10/29 10:51:43;;;;;;;15.63;8.05;;;;;;;21.97;38.00;97729.31;10283908;28;20057;-54
2023/10/29 10:56:42;;;;;;;9.25;7.00;;;;;;;21.99;37.58;97719.50;10284195;28;20494;-54
2023/10/29 11:01:40;;;;;;;7.25;6.03;;;;;;;21.96;37.41;97717.84;10283793;28;20514;-54
2023/10/29 11:06:41;;;;;;;8.27;6.43;;;;;;;22.13;37.54;97717.09;10281360;28;20433;-55
2023/10/29 11:11:45;;;;;;;8.38;5.80;;;;;;;22.35;37.37;97719.53;10283024;28;20197;-54
2023/10/29 11:16:55;;;;;;;11.80;6.53;;;;;;;22.52;36.73;97715.19;10283955;28;20496;-55
2023/10/29 11:22:31;;;;;;;8.95;7.07;;;;;;;22.47;35.57;97704.84;10282400;28;20857;-55
2023/10/29 11:27:43;;;;;;;6.47;5.25;;;;;;;22.43;35.11;97698.00;10280987;28;20069;-54
2023/10/29 11:32:43;;;;;;;6.18;5.50;;;;;;;22.58;35.01;97693.75;10283964;28;20530;-53
2023/10/29 11:37:43;;;;;;;10.07;5.88;;;;;;;22.63;34.82;97678.50;10283696;28;20531;-52
2023/10/29 11:42:44;;;;;;;6.68;5.55;;;;;;;22.92;34.39;97684.94;10283083;28;20172;-53
2023/10/29 11:48:17;;;;;;;8.73;7.00;;;;;;;23.11;34.39;97679.53;10284233;28;20459;-53
2023/10/29 11:53:25;;;;;;;8.23;6.45;;;;;;;23.28;33.60;97677.78;10283194;28;20133;-54
2023/10/29 11:58:24;;;;;;;7.05;6.22;;;;;;;23.33;33.07;97675.78;10282850;28;20133;-54
2023/10/29 12:03:23;;;;;;;10.40;6.80;;;;;;;23.05;33.14;97669.28;10282195;28;20033;-54
2023/10/29 12:08:23;;;;;;;8.70;7.22;;;;;;;23.20;32.86;97683.50;10282948;28;20053;-54
2023/10/29 12:13:22;;;;;;;8.15;7.35;;;;;;;23.34;32.86;97667.72;10282158;28;20073;-54
2023/10/29 12:18:22;;;;;;;11.20;8.30;;;;;;;23.42;32.89;97667.31;10285420;28;20062;-54
2023/10/29 12:23:21;;;;;;;8.10;7.07;;;;;;;23.48;32.66;97660.88;10289851;28;20072;-54
2023/10/29 12:28:20;;;;;;;8.23;7.43;;;;;;;23.55;32.69;97663.09;10288410;28;20049;-55
2023/10/29 12:33:25;;;;;;;12.38;8.25;;;;;;;23.69;32.78;97657.03;10289528;28;20057;-54
2023/10/29 12:38:25;;;;;;;12.07;9.65;;;;;;;23.89;32.43;97663.88;10304998;28;20463;-54
2023/10/29 12:43:36;;;;;;;9.00;8.20;;;;;;;23.92;32.15;97661.03;10289033;28;20514;-54
2023/10/29 12:48:55;;;;;;;9.90;8.15;;;;;;;24.02;31.77;97664.00;10288975;28;20141;-53
2023/10/29 12:54:12;;;;;;;9.15;7.38;;;;;;;24.01;31.55;97655.22;10289386;28;20057;-50
2023/10/29 12:59:11;;;;;;;11.18;8.10;;;;;;;24.04;31.41;97655.03;10288578;28;20093;-52
2023/10/29 13:04:10;;;;;;;8.07;7.28;;;;;;;24.06;31.25;97650.50;10289005;28;20125;-53
2023/10/29 13:09:11;;;;;;;8.68;7.63;;;;;;;24.13;31.24;97656.31;10288748;28;20164;-54
2023/10/29 13:14:11;;;;;;;8.90;7.32;;;;;;;24.16;31.14;97649.97;10287798;28;20496;-54
2023/10/29 13:19:13;;;;;;;7.70;7.00;;;;;;;24.19;30.79;97641.84;10287392;28;20122;-53
2023/10/29 13:24:12;;;;;;;7.03;6.28;;;;;;;24.28;30.80;97643.97;10288457;28;20092;-53
2023/10/29 13:29:10;;;;;;;6.70;6.13;;;;;;;24.14;30.81;97649.19;10286990;28;20026;-54
2023/10/29 13:34:10;;;;;;;7.38;6.68;;;;;;;23.82;30.04;97622.75;10287291;28;20045;-54
2023/10/29 13:39:12;;;;;;;7.55;6.47;;;;;;;23.76;29.88;97644.28;10289254;28;20506;-54
2023/10/29 13:44:15;;;;;;;7.63;6.93;;;;;;;23.90;30.15;97657.63;10286988;28;20072;-54
2023/10/29 13:49:15;;;;;;;7.78;6.80;;;;;;;24.00;29.95;97652.63;10287340;28;20073;-55
2023/10/29 13:54:13;;;;;;;7.63;6.93;;;;;;;24.00;30.25;97653.47;10287553;28;20519;-54
2023/10/29 13:59:14;;;;;;;7.40;6.50;;;;;;;23.76;30.62;97652.25;10286464;28;20045;-52
2023/10/29 14:04:13;;;;;;;7.32;6.70;;;;;;;23.58;33.73;97660.28;10287132;28;20069;-53
2023/10/29 14:09:12;;;;;;;10.00;6.57;;;;;;;23.08;35.39;97671.78;10285869;28;20077;-55
2023/10/29 14:14:11;;;;;;;7.80;6.15;;;;;;;22.77;36.16;97665.44;10285869;28;20044;-54
2023/10/29 14:19:10;;;;;;;8.65;7.75;;;;;;;22.56;36.82;97685.03;10285409;28;20080;-52
2023/10/29 14:24:09;;;;;;;7.38;6.68;;;;;;;22.35;36.86;97690.44;10286392;28;20084;-54
2023/10/29 14:29:08;;;;;;;14.18;10.02;;;;;;;22.30;37.27;97692.47;10285779;28;20030;-53
2023/10/29 14:34:08;;;;;;;7.93;7.18;;;;;;;22.27;37.57;97697.94;10285626;28;20123;-54
2023/10/29 14:39:07;;;;;;;11.13;7.90;;;;;;;22.17;38.03;97708.06;10284256;28;20474;-54
2023/10/29 14:44:07;;;;;;;7.93;7.18;;;;;;;22.07;37.95;97706.81;10285153;28;20073;-54
2023/10/29 14:49:06;;;;;;;11.70;8.38;;;;;;;21.85;38.18;97708.72;10285067;28;20065;-54
2023/10/29 14:54:05;;;;;;;9.93;8.73;;;;;;;21.76;38.69;97712.66;10284251;28;20030;-55
2023/10/29 14:59:07;;;;;;;9.77;8.63;;;;;;;21.59;38.87;97709.94;10284338;28;20073;-54
2023/10/29 15:04:06;;;;;;;9.55;8.55;;;;;;;21.39;39.06;97708.22;10283929;28;21101;-54
2023/10/29 15:09:05;;;;;;;9.73;7.60;;;;;;;21.26;39.46;97707.91;10283532;28;20758;-55
2023/10/29 15:14:06;;;;;;;8.32;7.55;;;;;;;21.07;39.77;97713.13;10284290;28;20554;-54
2023/10/29 15:19:06;;;;;;;8.50;7.40;;;;;;;20.88;40.00;97715.72;10283379;28;20526;-55
2023/10/29 15:24:06;;;;;;;9.07;7.43;;;;;;;20.72;40.51;97707.59;10284484;28;20593;-54
2023/10/29 15:29:05;;;;;;;9.45;7.95;;;;;;;20.50;40.84;97718.19;10281790;28;20076;-52
2023/10/29 15:34:04;;;;;;;10.30;8.75;;;;;;;20.28;41.12;97713.78;10283776;28;20081;-53
2023/10/29 15:39:04;;;;;;;9.38;7.70;;;;;;;20.12;41.52;97722.34;10283839;28;20053;-54
2023/10/29 15:44:04;;;;;;;9.23;7.78;;;;;;;19.94;41.98;97726.59;10283590;28;20582;-54
2023/10/29 15:49:03;;;;;;;12.68;9.50;;;;;;;19.74;42.48;97732.59;10283552;28;20133;-56
2023/10/29 15:54:02;;;;;;;19.13;10.48;;;;;;;19.55;42.88;97743.78;10286536;28;20072;-54
2023/10/29 15:59:04;;;;;;;16.05;10.57;;;;;;;19.28;43.32;97750.94;10290399;28;20137;-54
2023/10/29 16:04:03;;;;;;;18.25;11.02;;;;;;;18.92;43.84;97751.31;10289645;28;20066;-55
2023/10/29 16:09:02;;;;;;;19.55;9.57;;;;;;;18.81;44.21;97766.63;10289531;28;20133;-55
2023/10/29 16:14:01;;;;;;;46.88;31.83;;;;;;;18.50;44.97;97783.38;10291185;28;20077;-55
2023/10/29 16:19:00;;;;;;;259.30;161.95;;;;;;;18.29;45.19;97786.69;10290734;28;20455;-54
2023/10/29 16:23:59;;;;;;;26.90;15.02;;;;;;;18.04;45.62;97784.81;10290791;28;20471;-53
2023/10/29 16:28:58;;;;;;;12.73;8.07;;;;;;;17.89;46.00;97799.25;10289802;28;20552;-55
2023/10/29 16:33:57;;;;;;;9.93;7.70;;;;;;;17.69;46.38;97806.84;10289272;28;20547;-54
2023/10/29 16:38:56;;;;;;;11.20;8.07;;;;;;;17.51;46.64;97802.97;10289163;28;20544;-54
2023/10/29 16:43:55;;;;;;;11.05;8.65;;;;;;;17.39;47.22;97821.69;10290318;28;20503;-53
2023/10/29 16:48:54;;;;;;;10.23;8.30;;;;;;;17.26;48.03;97819.41;10289229;28;20125;-54
2023/10/29 16:53:53;;;;;;;;;;;;;;;17.13;48.68;97828.47;10287812;28;20044;-53
2023/10/29 16:58:52;;;;;;;12.57;8.83;;;;;;;16.97;49.09;97835.03;10288332;28;19929;-54
2023/10/29 17:03:51;;;;;;;;;;;;;;;16.82;49.65;97846.75;10287918;28;20519;-54
2023/10/29 17:08:50;;;;;;;9.73;7.80;;;;;;;16.71;50.19;97846.97;10287426;28;19980;-55
2023/10/29 17:13:50;;;;;;;9.80;8.32;;;;;;;16.56;50.74;97860.44;10288774;28;20065;-54
2023/10/29 17:18:49;;;;;;;13.63;11.07;;;;;;;16.45;51.32;97871.16;10288987;28;20073;-55
2023/10/29 17:23:50;;;;;;;17.60;10.07;;;;;;;16.20;51.84;97868.22;10286949;28;20498;-54
2023/10/29 17:28:49;;;;;;;11.43;9.07;;;;;;;16.01;52.28;97873.84;10286654;28;20072;-58
2023/10/29 17:33:48;;;;;;;;;;;;;;;15.87;53.03;97881.13;10288442;28;20053;-54
2023/10/29 17:38:47;;;;;;;17.63;10.50;;;;;;;15.71;52.83;97884.91;10111129;28;20011;-54
2023/10/29 17:43:46;;;;;;;;;;;;;;;15.60;53.29;97888.59;10258839;28;20137;-54
2023/10/29 17:48:46;;;;;;;14.63;10.13;;;;;;;15.55;53.43;97900.91;10275317;28;19972;-53
2023/10/29 17:53:46;;;;;;;14.65;9.27;;;;;;;15.48;53.83;97908.88;10245350;28;20077;-53
2023/10/29 17:58:48;;;;;;;14.98;9.32;;;;;;;15.39;54.48;97904.69;10247211;28;20066;-54
2023/10/29 18:03:53;;;;;;;20.17;12.52;;;;;;;15.09;54.52;97862.50;10286135;28;20144;-53
2023/10/29 18:08:52;;;;;;;42.33;25.63;;;;;;;15.14;55.12;97905.09;10259234;28;20073;-54
2023/10/29 18:13:51;;;;;;;;;;;;;;;15.05;55.25;97915.72;10286391;28;20037;-55
2023/10/29 18:18:50;;;;;;;37.08;20.38;;;;;;;15.02;55.63;97921.00;10285621;28;20452;-55
2023/10/29 18:23:49;;;;;;;27.30;16.80;;;;;;;14.88;56.83;97921.22;10285059;28;20076;-54
2023/10/29 18:28:48;;;;;;;;;;;;;;;14.85;56.48;97921.28;10285450;28;20038;-53
2023/10/29 18:33:47;;;;;;;23.98;13.90;;;;;;;14.75;56.75;97925.75;10285678;28;20421;-54
2023/10/29 18:38:46;;;;;;;20.70;11.40;;;;;;;14.61;57.24;97917.22;10284156;28;20422;-53
2023/10/29 18:43:46;;;;;;;19.05;10.98;;;;;;;14.49;57.76;97920.03;10285325;28;20033;-52
2023/10/29 18:48:45;;;;;;;13.05;10.95;;;;;;;14.39;58.12;97917.53;10285605;28;20126;-52
2023/10/29 18:53:44;;;;;;;14.20;9.70;;;;;;;14.38;58.41;97933.22;10284057;28;20502;-54
2023/10/29 18:58:44;;;;;;;18.67;10.77;;;;;;;14.32;58.91;97939.38;10284992;28;20428;-54
2023/10/29 19:03:43;;;;;;;22.50;15.68;;;;;;;14.13;59.17;97938.75;10284374;28;20128;-54
2023/10/29 19:08:42;;;;;;;20.40;13.63;;;;;;;14.07;59.58;97933.59;10270840;28;20125;-53
2023/10/29 19:13:41;;;;;;;21.38;13.80;;;;;;;13.94;59.95;97942.47;10243601;28;20068;-55
2023/10/29 19:18:40;;;;;;;18.58;12.40;;;;;;;13.82;60.47;97933.03;10243625;28;20070;-54
2023/10/29 19:23:39;;;;;;;16.15;11.15;;;;;;;13.77;61.02;97942.63;10242539;28;20026;-54
2023/10/29 19:28:38;;;;;;;18.92;12.38;;;;;;;13.73;61.06;97946.19;10242490;28;21167;-55
2023/10/29 19:33:40;;;;;;;19.80;11.77;;;;;;;13.53;61.49;97933.31;10243403;28;20077;-54
2023/10/29 19:38:41;;;;;;;16.05;11.48;;;;;;;13.56;61.58;97944.63;10242645;28;20096;-52
2023/10/29 19:43:39;;;;;;;14.77;10.30;;;;;;;13.42;62.83;97948.19;10280734;28;20072;-53
2023/10/29 19:48:38;;;;;;;11.18;7.30;;;;;;;12.97;64.52;97953.75;10284016;28;20045;-53
2023/10/29 19:53:37;;;;;;;11.52;7.32;;;;;;;13.00;63.57;97951.16;10282653;28;20614;-52
2023/10/29 19:58:37;;;;;;;10.07;7.50;;;;;;;12.93;63.90;97954.69;10283421;28;20077;-53
2023/10/29 20:03:36;;;;;;;11.65;7.70;;;;;;;12.75;63.49;97941.78;10282684;28;20484;-54
2023/10/29 20:08:37;;;;;;;9.55;7.55;;;;;;;12.81;63.85;97954.75;10269680;28;20133;-53
2023/10/29 20:13:36;;;;;;;19.13;12.02;;;;;;;12.76;64.39;97954.78;10242760;28;20077;-54
2023/10/29 20:18:36;;;;;;;16.40;11.70;;;;;;;12.68;64.67;97965.25;10242490;28;20162;-54
2023/10/29 20:23:35;;;;;;;12.75;9.80;;;;;;;12.64;65.05;97971.34;10240989;28;20157;-55
2023/10/29 20:28:35;;;;;;;18.15;10.50;;;;;;;12.55;65.24;97966.19;10242323;28;20468;-54
2023/10/29 20:33:34;;;;;;;23.30;16.05;;;;;;;12.51;65.42;97961.88;10242396;28;20523;-54
2023/10/29 20:38:33;;;;;;;;;;;;;;;12.48;65.90;97960.13;10242769;28;20082;-54
2023/10/29 20:43:32;;;;;;;25.00;16.67;;;;;;;12.36;66.28;97967.16;10249019;28;19972;-53
2023/10/29 20:48:31;;;;;;;27.00;19.75;;;;;;;12.23;66.81;97961.97;10249464;28;20113;-51
2023/10/29 20:53:30;;;;;;;32.10;21.35;;;;;;;12.19;67.24;97964.59;10248675;28;20030;-54
2023/10/29 20:58:29;;;;;;;27.60;19.67;;;;;;;12.16;67.75;97970.69;10248388;28;20034;-55
2023/10/29 21:03:27;;;;;;;27.58;16.80;;;;;;;12.13;67.64;97973.28;10248838;28;20038;-54
2023/10/29 21:08:26;;;;;;;19.40;13.27;;;;;;;12.14;67.69;97981.97;10258592;28;20034;-54
2023/10/29 21:13:25;;;;;;;18.90;11.30;;;;;;;12.10;67.52;97973.31;10288053;28;20092;-54
2023/10/29 21:18:24;;;;;;;19.92;12.55;;;;;;;12.03;67.83;97969.00;10288505;28;20041;-54
2023/10/29 21:23:24;;;;;;;24.55;17.15;;;;;;;12.06;68.35;97974.19;10286975;28;20145;-55
2023/10/29 21:28:23;;;;;;;23.55;16.50;;;;;;;11.97;68.28;97984.59;10288395;28;20427;-52
2023/10/29 21:33:22;;;;;;;22.88;13.73;;;;;;;11.93;68.70;97994.16;10318777;28;20076;-53
2023/10/29 21:38:21;;;;;;;;;;;;;;;11.87;68.79;97982.03;10287714;28;20519;-53
2023/10/29 21:43:20;;;;;;;25.80;14.18;;;;;;;11.77;69.12;97998.53;10287151;28;19921;-53
2023/10/29 21:48:19;;;;;;;24.83;16.42;;;;;;;11.65;69.50;97995.97;10286644;28;20570;-54
2023/10/29 21:53:18;;;;;;;29.08;16.42;;;;;;;11.62;69.28;97999.44;10300955;28;20447;-53
2023/10/29 21:58:17;;;;;;;27.75;16.77;;;;;;;11.55;69.65;97997.72;10246445;28;20121;-53
2023/10/29 22:03:16;;;;;;;29.90;17.30;;;;;;;11.49;70.26;97997.69;10245605;28;20500;-54
2023/10/29 22:08:15;;;;;;;32.33;16.85;;;;;;;11.44;69.59;97992.50;10254913;28;20046;-54
2023/10/29 22:13:14;;;;;;;24.42;15.90;;;;;;;11.34;70.26;98001.19;10286186;28;20496;-53
2023/10/29 22:18:13;;;;;;;29.00;16.45;;;;;;;10.86;69.89;97931.88;10285858;28;20126;-54
2023/10/29 22:23:12;;;;;;;26.38;15.93;;;;;;;10.79;70.57;97944.84;10285886;28;20085;-53
2023/10/29 22:28:12;;;;;;;;;;;;;;;11.10;70.56;98003.75;10285397;28;20109;-54
2023/10/29 22:33:11;;;;;;;29.17;15.97;;;;;;;11.02;70.79;98009.81;10285850;28;19964;-54
2023/10/29 22:38:10;;;;;;;27.98;14.10;;;;;;;10.99;71.07;98003.75;10285510;28;20060;-55
2023/10/29 22:43:09;;;;;;;22.63;13.50;;;;;;;10.70;70.65;97955.19;10284663;28;20076;-54
2023/10/29 22:48:08;;;;;;;21.92;13.88;;;;;;;10.87;71.44;98009.81;10284527;28;20109;-53
2023/10/29 22:53:07;;;;;;;21.15;13.57;;;;;;;10.84;71.31;98008.00;10284479;28;20037;-54
2023/10/29 22:58:06;;;;;;;27.15;16.83;;;;;;;10.84;71.41;98001.94;10284504;28;20112;-53
2023/10/29 23:03:06;;;;;;;25.60;16.75;;;;;;;10.78;71.36;98009.75;10283417;28;20041;-54
2023/10/29 23:08:05;;;;;;;29.55;17.55;;;;;;;10.73;71.20;98008.84;10275837;28;20121;-53